sensor_id;sensor_type;location;lat;lon;timestamp;temperature;humidity
32522;DHT22;18963;51.504;5.316;2022-08-21T00:01:24;12.30;99.90
32522;DHT22;18963;51.504;5.316;2022-08-21T00:03:50;12.30;99.90
32522;DHT22;18963;51.504;5.316;2022-08-21T00:06:16;12.20;99.90
32522;DHT22;18963;51.504;5.316;2022-08-21T00:08:41;12.20;99.90
32522;DHT22;18963;51.504;5.316;2022-08-21T00:11:07;12.20;99.90
32522;DHT22;18963;51.504;5.316;2022-08-21T00:13:33;12.20;99.90
32522;DHT22;18963;51.504;5.316;2022-08-21T00:15:59;12.10;99.90
32522;DHT22;18963;51.504;5.316;2022-08-21T00:18:25;12.10;99.90
32522;DHT22;18963;51.504;5.316;2022-08-21T00:20:51;12.10;99.90
32522;DHT22;18963;51.504;5.316;2022-08-21T00:23:17;12.10;99.90
32522;DHT22;18963;51.504;5.316;2022-08-21T00:25:42;12.10;99.90
32522;DHT22;18963;51.504;5.316;2022-08-21T00:28:08;12.20;99.90
32522;DHT22;18963;51.504;5.316;2022-08-21T00:30:34;12.10;99.90
32522;DHT22;18963;51.504;5.316;2022-08-21T00:33:00;12.10;99.90
32522;DHT22;18963;51.504;5.316;2022-08-21T00:35:28;12.10;99.90
32522;DHT22;18963;51.504;5.316;2022-08-21T00:37:53;12.20;99.90
32522;DHT22;18963;51.504;5.316;2022-08-21T00:40:30;12.20;99.90
32522;DHT22;18963;51.504;5.316;2022-08-21T00:42:56;12.20;99.90
32522;DHT22;18963;51.504;5.316;2022-08-21T00:45:22;12.20;99.90
32522;DHT22;18963;51.504;5.316;2022-08-21T00:47:48;12.10;99.90
32522;DHT22;18963;51.504;5.316;2022-08-21T00:50:13;12.10;99.90
32522;DHT22;18963;51.504;5.316;2022-08-21T00:52:40;12.10;99.90
32522;DHT22;18963;51.504;5.316;2022-08-21T00:55:07;12.00;99.90
32522;DHT22;18963;51.504;5.316;2022-08-21T00:57:36;12.00;99.90
32522;DHT22;18963;51.504;5.316;2022-08-21T01:00:06;12.00;99.90
32522;DHT22;18963;51.504;5.316;2022-08-21T01:02:32;11.90;99.90
32522;DHT22;18963;51.504;5.316;2022-08-21T01:04:58;11.90;99.90
32522;DHT22;18963;51.504;5.316;2022-08-21T01:07:23;11.90;99.90
32522;DHT22;18963;51.504;5.316;2022-08-21T01:09:50;11.90;99.90
32522;DHT22;18963;51.504;5.316;2022-08-21T01:12:17;11.90;99.90
32522;DHT22;18963;51.504;5.316;2022-08-21T01:14:42;11.90;99.90
32522;DHT22;18963;51.504;5.316;2022-08-21T01:17:09;11.90;99.90
32522;DHT22;18963;51.504;5.316;2022-08-21T01:19:35;11.90;99.90
32522;DHT22;18963;51.504;5.316;2022-08-21T01:22:01;11.90;99.90
32522;DHT22;18963;51.504;5.316;2022-08-21T01:24:28;11.90;99.90
32522;DHT22;18963;51.504;5.316;2022-08-21T01:26:54;11.90;99.90
32522;DHT22;18963;51.504;5.316;2022-08-21T01:29:23;12.00;99.90
32522;DHT22;18963;51.504;5.316;2022-08-21T01:31:51;12.00;99.90
32522;DHT22;18963;51.504;5.316;2022-08-21T01:34:17;12.00;99.90
32522;DHT22;18963;51.504;5.316;2022-08-21T01:36:44;11.90;99.90
32522;DHT22;18963;51.504;5.316;2022-08-21T01:39:09;11.90;99.90
32522;DHT22;18963;51.504;5.316;2022-08-21T01:41:35;11.90;99.90
32522;DHT22;18963;51.504;5.316;2022-08-21T01:44:00;11.90;99.90
32522;DHT22;18963;51.504;5.316;2022-08-21T01:46:26;11.80;99.90
32522;DHT22;18963;51.504;5.316;2022-08-21T01:48:51;11.80;99.90
32522;DHT22;18963;51.504;5.316;2022-08-21T01:51:17;11.80;99.90
32522;DHT22;18963;51.504;5.316;2022-08-21T01:53:43;11.80;99.90
32522;DHT22;18963;51.504;5.316;2022-08-21T01:56:09;11.80;99.90
32522;DHT22;18963;51.504;5.316;2022-08-21T01:58:35;11.70;99.90
32522;DHT22;18963;51.504;5.316;2022-08-21T02:01:01;11.60;99.90
32522;DHT22;18963;51.504;5.316;2022-08-21T02:03:27;11.60;99.90
32522;DHT22;18963;51.504;5.316;2022-08-21T02:05:53;11.50;99.90
32522;DHT22;18963;51.504;5.316;2022-08-21T02:08:19;11.50;99.90
32522;DHT22;18963;51.504;5.316;2022-08-21T02:10:48;11.50;99.90
32522;DHT22;18963;51.504;5.316;2022-08-21T02:13:14;11.50;99.90
32522;DHT22;18963;51.504;5.316;2022-08-21T02:15:40;11.50;99.90
32522;DHT22;18963;51.504;5.316;2022-08-21T02:18:05;11.50;99.90
32522;DHT22;18963;51.504;5.316;2022-08-21T02:20:33;11.50;99.90
32522;DHT22;18963;51.504;5.316;2022-08-21T02:22:59;11.40;99.90
32522;DHT22;18963;51.504;5.316;2022-08-21T02:25:26;11.40;99.90
32522;DHT22;18963;51.504;5.316;2022-08-21T02:27:52;11.30;99.90
32522;DHT22;18963;51.504;5.316;2022-08-21T02:30:22;11.20;99.90
32522;DHT22;18963;51.504;5.316;2022-08-21T02:32:49;11.20;99.90
32522;DHT22;18963;51.504;5.316;2022-08-21T02:35:14;11.20;99.90
32522;DHT22;18963;51.504;5.316;2022-08-21T02:37:44;11.20;99.90
32522;DHT22;18963;51.504;5.316;2022-08-21T02:40:10;11.10;99.90
32522;DHT22;18963;51.504;5.316;2022-08-21T02:42:36;11.10;99.90
32522;DHT22;18963;51.504;5.316;2022-08-21T02:45:03;11.10;99.90
32522;DHT22;18963;51.504;5.316;2022-08-21T02:47:28;11.10;99.90
32522;DHT22;18963;51.504;5.316;2022-08-21T02:49:54;11.00;99.90
32522;DHT22;18963;51.504;5.316;2022-08-21T02:52:19;11.00;99.90
32522;DHT22;18963;51.504;5.316;2022-08-21T02:54:47;11.00;99.90
32522;DHT22;18963;51.504;5.316;2022-08-21T02:57:12;11.00;99.90
32522;DHT22;18963;51.504;5.316;2022-08-21T02:59:38;11.00;99.90
32522;DHT22;18963;51.504;5.316;2022-08-21T03:02:03;11.00;99.90
32522;DHT22;18963;51.504;5.316;2022-08-21T03:04:29;11.10;99.90
32522;DHT22;18963;51.504;5.316;2022-08-21T03:06:54;11.10;99.90
32522;DHT22;18963;51.504;5.316;2022-08-21T03:09:20;11.00;99.90
32522;DHT22;18963;51.504;5.316;2022-08-21T03:11:45;11.00;99.90
32522;DHT22;18963;51.504;5.316;2022-08-21T03:14:11;11.00;99.90
32522;DHT22;18963;51.504;5.316;2022-08-21T03:16:37;11.00;99.90
32522;DHT22;18963;51.504;5.316;2022-08-21T03:19:02;11.00;99.90
32522;DHT22;18963;51.504;5.316;2022-08-21T03:21:28;11.00;99.90
32522;DHT22;18963;51.504;5.316;2022-08-21T03:23:54;11.00;99.90
32522;DHT22;18963;51.504;5.316;2022-08-21T03:26:19;11.00;99.90
32522;DHT22;18963;51.504;5.316;2022-08-21T03:28:45;11.00;99.90
32522;DHT22;18963;51.504;5.316;2022-08-21T03:31:10;11.00;99.90
32522;DHT22;18963;51.504;5.316;2022-08-21T03:33:36;11.00;99.90
32522;DHT22;18963;51.504;5.316;2022-08-21T03:36:03;10.90;99.90
32522;DHT22;18963;51.504;5.316;2022-08-21T03:38:30;10.90;99.90
32522;DHT22;18963;51.504;5.316;2022-08-21T03:40:56;10.80;99.90
32522;DHT22;18963;51.504;5.316;2022-08-21T03:43:22;10.80;99.90
32522;DHT22;18963;51.504;5.316;2022-08-21T03:45:47;10.80;99.90
32522;DHT22;18963;51.504;5.316;2022-08-21T03:48:13;10.70;99.90
32522;DHT22;18963;51.504;5.316;2022-08-21T03:50:41;10.70;99.90
32522;DHT22;18963;51.504;5.316;2022-08-21T03:53:07;10.70;99.90
32522;DHT22;18963;51.504;5.316;2022-08-21T03:55:33;10.80;99.90
32522;DHT22;18963;51.504;5.316;2022-08-21T03:57:59;10.70;99.90
32522;DHT22;18963;51.504;5.316;2022-08-21T04:00:25;10.70;99.90
32522;DHT22;18963;51.504;5.316;2022-08-21T04:02:50;10.70;99.90
32522;DHT22;18963;51.504;5.316;2022-08-21T04:05:16;10.70;99.90
32522;DHT22;18963;51.504;5.316;2022-08-21T04:08:03;10.70;99.90
32522;DHT22;18963;51.504;5.316;2022-08-21T04:10:30;10.70;99.90
32522;DHT22;18963;51.504;5.316;2022-08-21T04:12:56;10.70;99.90
32522;DHT22;18963;51.504;5.316;2022-08-21T04:15:22;10.70;99.90
32522;DHT22;18963;51.504;5.316;2022-08-21T04:17:48;10.70;99.90
32522;DHT22;18963;51.504;5.316;2022-08-21T04:20:14;10.70;99.90
32522;DHT22;18963;51.504;5.316;2022-08-21T04:22:40;10.80;99.90
32522;DHT22;18963;51.504;5.316;2022-08-21T04:25:05;10.80;99.90
32522;DHT22;18963;51.504;5.316;2022-08-21T04:27:32;10.80;99.90
32522;DHT22;18963;51.504;5.316;2022-08-21T04:29:58;10.80;99.90
32522;DHT22;18963;51.504;5.316;2022-08-21T04:32:24;10.80;99.90
32522;DHT22;18963;51.504;5.316;2022-08-21T04:34:49;10.90;99.90
32522;DHT22;18963;51.504;5.316;2022-08-21T04:37:15;10.90;99.90
32522;DHT22;18963;51.504;5.316;2022-08-21T04:39:41;10.90;99.90
32522;DHT22;18963;51.504;5.316;2022-08-21T04:42:06;10.90;99.90
32522;DHT22;18963;51.504;5.316;2022-08-21T04:44:32;10.90;99.90
32522;DHT22;18963;51.504;5.316;2022-08-21T04:46:58;10.90;99.90
32522;DHT22;18963;51.504;5.316;2022-08-21T04:49:23;10.90;99.90
32522;DHT22;18963;51.504;5.316;2022-08-21T04:51:49;10.90;99.90
32522;DHT22;18963;51.504;5.316;2022-08-21T04:54:19;10.90;99.90
32522;DHT22;18963;51.504;5.316;2022-08-21T04:56:56;10.90;99.90
32522;DHT22;18963;51.504;5.316;2022-08-21T04:59:29;10.90;99.90
32522;DHT22;18963;51.504;5.316;2022-08-21T05:01:55;11.00;99.90
32522;DHT22;18963;51.504;5.316;2022-08-21T05:04:22;11.00;99.90
32522;DHT22;18963;51.504;5.316;2022-08-21T05:06:49;11.10;99.90
32522;DHT22;18963;51.504;5.316;2022-08-21T05:09:16;11.10;99.90
32522;DHT22;18963;51.504;5.316;2022-08-21T05:11:42;11.10;99.90
32522;DHT22;18963;51.504;5.316;2022-08-21T05:14:08;11.20;99.90
32522;DHT22;18963;51.504;5.316;2022-08-21T05:16:34;11.30;99.90
32522;DHT22;18963;51.504;5.316;2022-08-21T05:19:00;11.30;99.90
32522;DHT22;18963;51.504;5.316;2022-08-21T05:21:26;11.30;99.90
32522;DHT22;18963;51.504;5.316;2022-08-21T05:23:51;11.40;99.90
32522;DHT22;18963;51.504;5.316;2022-08-21T05:26:17;11.50;99.90
32522;DHT22;18963;51.504;5.316;2022-08-21T05:28:42;11.60;99.90
32522;DHT22;18963;51.504;5.316;2022-08-21T05:31:08;11.70;99.90
32522;DHT22;18963;51.504;5.316;2022-08-21T05:33:33;11.90;99.90
32522;DHT22;18963;51.504;5.316;2022-08-21T05:35:59;12.00;99.90
32522;DHT22;18963;51.504;5.316;2022-08-21T05:38:25;12.10;99.90
32522;DHT22;18963;51.504;5.316;2022-08-21T05:40:52;12.30;99.90
32522;DHT22;18963;51.504;5.316;2022-08-21T05:43:18;12.50;99.90
32522;DHT22;18963;51.504;5.316;2022-08-21T05:45:44;12.70;99.90
32522;DHT22;18963;51.504;5.316;2022-08-21T05:48:10;12.80;99.90
32522;DHT22;18963;51.504;5.316;2022-08-21T05:50:36;13.00;99.90
32522;DHT22;18963;51.504;5.316;2022-08-21T05:53:03;13.10;99.90
32522;DHT22;18963;51.504;5.316;2022-08-21T05:55:28;13.40;99.90
32522;DHT22;18963;51.504;5.316;2022-08-21T05:57:54;13.50;99.90
32522;DHT22;18963;51.504;5.316;2022-08-21T06:00:20;13.70;99.90
32522;DHT22;18963;51.504;5.316;2022-08-21T06:02:45;13.90;99.90
32522;DHT22;18963;51.504;5.316;2022-08-21T06:05:11;14.00;99.90
32522;DHT22;18963;51.504;5.316;2022-08-21T06:07:39;14.20;99.90
32522;DHT22;18963;51.504;5.316;2022-08-21T06:10:05;14.40;99.90
32522;DHT22;18963;51.504;5.316;2022-08-21T06:12:30;14.50;99.90
32522;DHT22;18963;51.504;5.316;2022-08-21T06:14:56;14.80;99.90
32522;DHT22;18963;51.504;5.316;2022-08-21T06:17:21;14.90;99.90
32522;DHT22;18963;51.504;5.316;2022-08-21T06:19:52;15.00;99.90
32522;DHT22;18963;51.504;5.316;2022-08-21T06:22:18;15.30;99.90
32522;DHT22;18963;51.504;5.316;2022-08-21T06:24:44;15.40;99.90
32522;DHT22;18963;51.504;5.316;2022-08-21T06:27:09;15.60;99.90
32522;DHT22;18963;51.504;5.316;2022-08-21T06:29:35;15.70;99.90
32522;DHT22;18963;51.504;5.316;2022-08-21T06:32:01;15.90;99.90
32522;DHT22;18963;51.504;5.316;2022-08-21T06:34:26;16.10;99.90
32522;DHT22;18963;51.504;5.316;2022-08-21T06:36:52;16.30;99.90
32522;DHT22;18963;51.504;5.316;2022-08-21T06:39:18;16.50;99.90
32522;DHT22;18963;51.504;5.316;2022-08-21T06:41:43;16.70;99.90
32522;DHT22;18963;51.504;5.316;2022-08-21T06:44:09;16.90;99.90
32522;DHT22;18963;51.504;5.316;2022-08-21T06:46:34;17.10;99.90
32522;DHT22;18963;51.504;5.316;2022-08-21T06:49:00;17.30;99.90
32522;DHT22;18963;51.504;5.316;2022-08-21T06:51:27;17.50;99.90
32522;DHT22;18963;51.504;5.316;2022-08-21T06:53:53;17.70;99.90
32522;DHT22;18963;51.504;5.316;2022-08-21T06:56:19;17.80;99.90
32522;DHT22;18963;51.504;5.316;2022-08-21T06:58:45;18.00;99.90
32522;DHT22;18963;51.504;5.316;2022-08-21T07:01:11;18.20;99.90
32522;DHT22;18963;51.504;5.316;2022-08-21T07:03:38;18.40;99.90
32522;DHT22;18963;51.504;5.316;2022-08-21T07:06:04;18.60;99.90
32522;DHT22;18963;51.504;5.316;2022-08-21T07:08:30;18.90;99.90
32522;DHT22;18963;51.504;5.316;2022-08-21T07:10:56;19.10;99.90
32522;DHT22;18963;51.504;5.316;2022-08-21T07:13:22;19.30;99.90
32522;DHT22;18963;51.504;5.316;2022-08-21T07:15:47;19.50;99.90
32522;DHT22;18963;51.504;5.316;2022-08-21T07:18:13;19.70;99.90
32522;DHT22;18963;51.504;5.316;2022-08-21T07:20:39;20.00;99.90
32522;DHT22;18963;51.504;5.316;2022-08-21T07:23:06;20.20;99.90
32522;DHT22;18963;51.504;5.316;2022-08-21T07:25:32;20.30;99.90
32522;DHT22;18963;51.504;5.316;2022-08-21T07:27:58;20.60;99.90
32522;DHT22;18963;51.504;5.316;2022-08-21T07:30:25;20.70;99.90
32522;DHT22;18963;51.504;5.316;2022-08-21T07:32:50;20.80;99.90
32522;DHT22;18963;51.504;5.316;2022-08-21T07:35:17;20.80;99.90
32522;DHT22;18963;51.504;5.316;2022-08-21T07:37:43;20.70;99.90
32522;DHT22;18963;51.504;5.316;2022-08-21T07:40:08;20.70;99.90
32522;DHT22;18963;51.504;5.316;2022-08-21T07:42:34;20.80;99.90
32522;DHT22;18963;51.504;5.316;2022-08-21T07:44:59;20.90;99.90
32522;DHT22;18963;51.504;5.316;2022-08-21T07:47:25;21.10;99.90
32522;DHT22;18963;51.504;5.316;2022-08-21T07:49:50;21.30;99.90
32522;DHT22;18963;51.504;5.316;2022-08-21T07:52:16;21.50;99.90
32522;DHT22;18963;51.504;5.316;2022-08-21T07:54:42;21.50;99.90
32522;DHT22;18963;51.504;5.316;2022-08-21T07:57:07;21.80;99.90
32522;DHT22;18963;51.504;5.316;2022-08-21T07:59:33;21.80;99.90
32522;DHT22;18963;51.504;5.316;2022-08-21T08:01:58;22.00;99.90
32522;DHT22;18963;51.504;5.316;2022-08-21T08:04:24;22.10;99.90
32522;DHT22;18963;51.504;5.316;2022-08-21T08:06:51;22.10;99.90
32522;DHT22;18963;51.504;5.316;2022-08-21T08:09:16;22.40;99.90
32522;DHT22;18963;51.504;5.316;2022-08-21T08:11:42;22.60;99.90
32522;DHT22;18963;51.504;5.316;2022-08-21T08:14:10;22.60;99.90
32522;DHT22;18963;51.504;5.316;2022-08-21T08:16:36;22.70;99.90
32522;DHT22;18963;51.504;5.316;2022-08-21T08:19:02;22.80;99.90
32522;DHT22;18963;51.504;5.316;2022-08-21T08:21:29;23.00;99.90
32522;DHT22;18963;51.504;5.316;2022-08-21T08:23:54;23.30;99.90
32522;DHT22;18963;51.504;5.316;2022-08-21T08:26:20;23.40;99.90
32522;DHT22;18963;51.504;5.316;2022-08-21T08:28:45;23.60;99.90
32522;DHT22;18963;51.504;5.316;2022-08-21T08:31:13;23.80;99.90
32522;DHT22;18963;51.504;5.316;2022-08-21T08:33:38;23.80;99.90
32522;DHT22;18963;51.504;5.316;2022-08-21T08:36:04;24.00;99.90
32522;DHT22;18963;51.504;5.316;2022-08-21T08:38:29;24.20;99.90
32522;DHT22;18963;51.504;5.316;2022-08-21T08:41:04;24.30;99.90
32522;DHT22;18963;51.504;5.316;2022-08-21T08:43:31;24.50;99.90
32522;DHT22;18963;51.504;5.316;2022-08-21T08:45:57;24.60;99.90
32522;DHT22;18963;51.504;5.316;2022-08-21T08:48:31;24.80;99.90
32522;DHT22;18963;51.504;5.316;2022-08-21T08:51:00;25.00;99.90
32522;DHT22;18963;51.504;5.316;2022-08-21T08:53:28;25.10;99.90
32522;DHT22;18963;51.504;5.316;2022-08-21T08:55:55;25.20;99.90
32522;DHT22;18963;51.504;5.316;2022-08-21T08:58:32;25.20;99.90
32522;DHT22;18963;51.504;5.316;2022-08-21T09:00:58;25.40;99.20
32522;DHT22;18963;51.504;5.316;2022-08-21T09:03:24;25.50;99.40
32522;DHT22;18963;51.504;5.316;2022-08-21T09:05:59;25.70;98.60
32522;DHT22;18963;51.504;5.316;2022-08-21T09:11:02;25.70;97.60
32522;DHT22;18963;51.504;5.316;2022-08-21T09:16:09;25.50;98.10
32522;DHT22;18963;51.504;5.316;2022-08-21T09:26:26;25.10;97.90
32522;DHT22;18963;51.504;5.316;2022-08-21T09:28:53;25.10;97.80
32522;DHT22;18963;51.504;5.316;2022-08-21T09:31:37;25.30;98.10
32522;DHT22;18963;51.504;5.316;2022-08-21T09:34:08;25.50;96.00
32522;DHT22;18963;51.504;5.316;2022-08-21T09:36:44;25.70;96.00
32522;DHT22;18963;51.504;5.316;2022-08-21T09:39:11;26.00;96.40
32522;DHT22;18963;51.504;5.316;2022-08-21T09:41:37;26.00;95.20
32522;DHT22;18963;51.504;5.316;2022-08-21T09:44:04;26.10;95.70
32522;DHT22;18963;51.504;5.316;2022-08-21T09:46:30;26.50;95.10
32522;DHT22;18963;51.504;5.316;2022-08-21T09:48:58;26.70;93.90
32522;DHT22;18963;51.504;5.316;2022-08-21T09:51:28;26.70;93.10
32522;DHT22;18963;51.504;5.316;2022-08-21T09:53:56;26.50;93.30
32522;DHT22;18963;51.504;5.316;2022-08-21T09:59:33;26.10;92.70
32522;DHT22;18963;51.504;5.316;2022-08-21T10:02:00;26.20;92.70
32522;DHT22;18963;51.504;5.316;2022-08-21T10:04:33;26.20;92.40
32522;DHT22;18963;51.504;5.316;2022-08-21T10:07:12;26.30;93.80
32522;DHT22;18963;51.504;5.316;2022-08-21T10:09:38;26.80;92.40
32522;DHT22;18963;51.504;5.316;2022-08-21T10:14:36;27.70;90.30
32522;DHT22;18963;51.504;5.316;2022-08-21T10:19:35;27.80;89.90
32522;DHT22;18963;51.504;5.316;2022-08-21T10:22:12;27.70;88.80
32522;DHT22;18963;51.504;5.316;2022-08-21T10:24:46;27.70;89.80
32522;DHT22;18963;51.504;5.316;2022-08-21T10:27:37;27.70;85.70
32522;DHT22;18963;51.504;5.316;2022-08-21T10:30:15;27.50;87.10
32522;DHT22;18963;51.504;5.316;2022-08-21T10:40:24;27.60;85.60
32522;DHT22;18963;51.504;5.316;2022-08-21T10:48:07;27.30;86.40
32522;DHT22;18963;51.504;5.316;2022-08-21T10:55:36;27.30;85.50
32522;DHT22;18963;51.504;5.316;2022-08-21T10:58:08;27.10;86.50
32522;DHT22;18963;51.504;5.316;2022-08-21T11:00:42;26.80;87.20
32522;DHT22;18963;51.504;5.316;2022-08-21T11:03:25;26.60;88.00
32522;DHT22;18963;51.504;5.316;2022-08-21T11:05:55;26.30;85.40
32522;DHT22;18963;51.504;5.316;2022-08-21T11:08:24;26.10;86.90
32522;DHT22;18963;51.504;5.316;2022-08-21T11:11:03;26.00;87.80
32522;DHT22;18963;51.504;5.316;2022-08-21T11:18:39;26.60;86.00
32522;DHT22;18963;51.504;5.316;2022-08-21T11:21:19;26.90;85.60
32522;DHT22;18963;51.504;5.316;2022-08-21T11:23:53;27.20;84.20
32522;DHT22;18963;51.504;5.316;2022-08-21T11:26:39;27.30;81.70
32522;DHT22;18963;51.504;5.316;2022-08-21T11:29:12;27.30;81.30
32522;DHT22;18963;51.504;5.316;2022-08-21T11:31:47;27.30;77.50
32522;DHT22;18963;51.504;5.316;2022-08-21T11:34:21;27.40;79.30
32522;DHT22;18963;51.504;5.316;2022-08-21T11:36:55;27.60;78.20
32522;DHT22;18963;51.504;5.316;2022-08-21T11:44:40;29.10;73.50
32522;DHT22;18963;51.504;5.316;2022-08-21T11:47:17;29.40;74.60
32522;DHT22;18963;51.504;5.316;2022-08-21T11:52:18;30.00;70.60
32522;DHT22;18963;51.504;5.316;2022-08-21T11:54:47;30.00;68.10
32522;DHT22;18963;51.504;5.316;2022-08-21T11:57:17;30.00;70.60
32522;DHT22;18963;51.504;5.316;2022-08-21T11:59:49;30.10;66.70
32522;DHT22;18963;51.504;5.316;2022-08-21T12:02:19;30.20;68.30
32522;DHT22;18963;51.504;5.316;2022-08-21T12:04:48;30.30;67.20
32522;DHT22;18963;51.504;5.316;2022-08-21T12:07:15;30.10;66.20
32522;DHT22;18963;51.504;5.316;2022-08-21T12:09:50;29.60;67.60
32522;DHT22;18963;51.504;5.316;2022-08-21T12:12:30;28.80;69.20
32522;DHT22;18963;51.504;5.316;2022-08-21T12:17:37;28.20;70.70
32522;DHT22;18963;51.504;5.316;2022-08-21T12:20:24;28.30;71.70
32522;DHT22;18963;51.504;5.316;2022-08-21T12:23:05;28.80;69.00
32522;DHT22;18963;51.504;5.316;2022-08-21T12:25:38;29.40;68.80
32522;DHT22;18963;51.504;5.316;2022-08-21T12:28:14;29.30;68.70
32522;DHT22;18963;51.504;5.316;2022-08-21T12:30:41;29.20;68.00
32522;DHT22;18963;51.504;5.316;2022-08-21T12:35:43;29.00;69.50
32522;DHT22;18963;51.504;5.316;2022-08-21T12:38:15;28.60;69.50
32522;DHT22;18963;51.504;5.316;2022-08-21T12:40:43;28.30;69.80
32522;DHT22;18963;51.504;5.316;2022-08-21T12:43:25;27.80;68.10
32522;DHT22;18963;51.504;5.316;2022-08-21T12:45:51;27.30;68.80
32522;DHT22;18963;51.504;5.316;2022-08-21T12:48:22;27.00;70.90
32522;DHT22;18963;51.504;5.316;2022-08-21T12:50:55;26.80;71.00
32522;DHT22;18963;51.504;5.316;2022-08-21T12:53:27;26.70;72.20
32522;DHT22;18963;51.504;5.316;2022-08-21T12:55:54;26.70;72.90
32522;DHT22;18963;51.504;5.316;2022-08-21T12:58:25;26.70;71.80
32522;DHT22;18963;51.504;5.316;2022-08-21T13:00:51;26.90;69.40
32522;DHT22;18963;51.504;5.316;2022-08-21T13:03:17;26.90;68.90
32522;DHT22;18963;51.504;5.316;2022-08-21T13:05:43;26.90;69.20
32522;DHT22;18963;51.504;5.316;2022-08-21T13:08:09;26.90;69.60
32522;DHT22;18963;51.504;5.316;2022-08-21T13:10:35;26.90;67.40
32522;DHT22;18963;51.504;5.316;2022-08-21T13:13:05;26.70;69.70
32522;DHT22;18963;51.504;5.316;2022-08-21T13:15:33;26.70;70.30
32522;DHT22;18963;51.504;5.316;2022-08-21T13:17:59;26.70;70.00
32522;DHT22;18963;51.504;5.316;2022-08-21T13:20:31;26.80;70.70
32522;DHT22;18963;51.504;5.316;2022-08-21T13:22:57;26.80;68.00
32522;DHT22;18963;51.504;5.316;2022-08-21T13:25:27;26.60;67.80
32522;DHT22;18963;51.504;5.316;2022-08-21T13:28:12;26.50;68.90
32522;DHT22;18963;51.504;5.316;2022-08-21T13:30:41;26.30;68.90
32522;DHT22;18963;51.504;5.316;2022-08-21T13:33:09;26.10;72.10
32522;DHT22;18963;51.504;5.316;2022-08-21T13:36:23;25.80;70.20
32522;DHT22;18963;51.504;5.316;2022-08-21T13:38:25;25.70;70.90
32522;DHT22;18963;51.504;5.316;2022-08-21T13:40:53;25.70;72.40
32522;DHT22;18963;51.504;5.316;2022-08-21T13:43:22;25.70;70.30
32522;DHT22;18963;51.504;5.316;2022-08-21T13:45:51;25.60;73.50
32522;DHT22;18963;51.504;5.316;2022-08-21T13:48:17;25.50;73.30
32522;DHT22;18963;51.504;5.316;2022-08-21T13:50:43;25.50;72.60
32522;DHT22;18963;51.504;5.316;2022-08-21T13:55:47;25.30;73.30
32522;DHT22;18963;51.504;5.316;2022-08-21T13:58:13;25.20;74.70
32522;DHT22;18963;51.504;5.316;2022-08-21T14:00:49;25.20;75.60
32522;DHT22;18963;51.504;5.316;2022-08-21T14:03:26;25.10;73.70
32522;DHT22;18963;51.504;5.316;2022-08-21T14:05:52;25.00;76.40
32522;DHT22;18963;51.504;5.316;2022-08-21T14:08:26;24.90;76.30
32522;DHT22;18963;51.504;5.316;2022-08-21T14:10:52;24.80;76.30
32522;DHT22;18963;51.504;5.316;2022-08-21T14:15:59;24.60;78.30
32522;DHT22;18963;51.504;5.316;2022-08-21T14:18:25;24.50;78.10
32522;DHT22;18963;51.504;5.316;2022-08-21T14:20:51;24.50;77.60
32522;DHT22;18963;51.504;5.316;2022-08-21T14:23:23;24.50;77.60
32522;DHT22;18963;51.504;5.316;2022-08-21T14:25:49;24.50;79.70
32522;DHT22;18963;51.504;5.316;2022-08-21T14:30:43;24.60;78.80
32522;DHT22;18963;51.504;5.316;2022-08-21T14:33:10;24.70;78.90
32522;DHT22;18963;51.504;5.316;2022-08-21T14:35:35;24.70;78.80
32522;DHT22;18963;51.504;5.316;2022-08-21T14:38:01;24.80;77.30
32522;DHT22;18963;51.504;5.316;2022-08-21T14:40:27;24.90;78.40
32522;DHT22;18963;51.504;5.316;2022-08-21T14:42:53;24.90;78.50
32522;DHT22;18963;51.504;5.316;2022-08-21T14:45:22;25.00;77.20
32522;DHT22;18963;51.504;5.316;2022-08-21T14:47:48;25.00;78.00
32522;DHT22;18963;51.504;5.316;2022-08-21T14:50:14;25.00;78.60
32522;DHT22;18963;51.504;5.316;2022-08-21T14:52:40;25.00;78.90
32522;DHT22;18963;51.504;5.316;2022-08-21T14:55:06;25.00;79.30
32522;DHT22;18963;51.504;5.316;2022-08-21T14:57:32;25.10;79.30
32522;DHT22;18963;51.504;5.316;2022-08-21T14:59:58;25.10;79.00
32522;DHT22;18963;51.504;5.316;2022-08-21T15:02:25;25.10;76.30
32522;DHT22;18963;51.504;5.316;2022-08-21T15:04:50;25.00;76.60
32522;DHT22;18963;51.504;5.316;2022-08-21T15:07:16;24.80;77.70
32522;DHT22;18963;51.504;5.316;2022-08-21T15:09:41;24.80;78.00
32522;DHT22;18963;51.504;5.316;2022-08-21T15:12:07;24.70;78.40
32522;DHT22;18963;51.504;5.316;2022-08-21T15:14:33;24.60;78.20
32522;DHT22;18963;51.504;5.316;2022-08-21T15:16:59;24.60;80.50
32522;DHT22;18963;51.504;5.316;2022-08-21T15:19:25;24.50;78.30
32522;DHT22;18963;51.504;5.316;2022-08-21T15:21:51;24.50;79.30
32522;DHT22;18963;51.504;5.316;2022-08-21T15:24:16;24.50;78.90
32522;DHT22;18963;51.504;5.316;2022-08-21T15:26:42;24.50;79.10
32522;DHT22;18963;51.504;5.316;2022-08-21T15:29:08;24.60;79.10
32522;DHT22;18963;51.504;5.316;2022-08-21T15:31:34;24.60;79.10
32522;DHT22;18963;51.504;5.316;2022-08-21T15:34:00;24.70;79.80
32522;DHT22;18963;51.504;5.316;2022-08-21T15:36:25;24.80;78.00
32522;DHT22;18963;51.504;5.316;2022-08-21T15:38:51;24.80;78.10
32522;DHT22;18963;51.504;5.316;2022-08-21T15:41:16;24.80;76.80
32522;DHT22;18963;51.504;5.316;2022-08-21T15:43:46;24.80;76.30
32522;DHT22;18963;51.504;5.316;2022-08-21T15:46:13;24.80;75.10
32522;DHT22;18963;51.504;5.316;2022-08-21T15:48:39;24.80;76.20
32522;DHT22;18963;51.504;5.316;2022-08-21T15:51:05;24.90;77.20
32522;DHT22;18963;51.504;5.316;2022-08-21T15:53:30;25.00;77.90
32522;DHT22;18963;51.504;5.316;2022-08-21T15:56:00;25.00;76.50
32522;DHT22;18963;51.504;5.316;2022-08-21T15:58:27;25.10;77.20
32522;DHT22;18963;51.504;5.316;2022-08-21T16:00:52;25.10;74.20
32522;DHT22;18963;51.504;5.316;2022-08-21T16:03:18;25.10;76.60
32522;DHT22;18963;51.504;5.316;2022-08-21T16:05:47;25.20;75.70
32522;DHT22;18963;51.504;5.316;2022-08-21T16:08:14;25.20;74.50
32522;DHT22;18963;51.504;5.316;2022-08-21T16:10:39;25.10;73.50
32522;DHT22;18963;51.504;5.316;2022-08-21T16:13:06;25.10;74.10
32522;DHT22;18963;51.504;5.316;2022-08-21T16:15:32;25.10;73.20
32522;DHT22;18963;51.504;5.316;2022-08-21T16:17:58;25.10;73.80
32522;DHT22;18963;51.504;5.316;2022-08-21T16:20:25;25.10;73.50
32522;DHT22;18963;51.504;5.316;2022-08-21T16:22:51;25.10;73.50
32522;DHT22;18963;51.504;5.316;2022-08-21T16:25:17;25.10;73.90
32522;DHT22;18963;51.504;5.316;2022-08-21T16:27:54;25.10;73.20
32522;DHT22;18963;51.504;5.316;2022-08-21T16:30:21;25.10;75.10
32522;DHT22;18963;51.504;5.316;2022-08-21T16:32:46;25.00;75.60
32522;DHT22;18963;51.504;5.316;2022-08-21T16:35:14;24.90;76.20
32522;DHT22;18963;51.504;5.316;2022-08-21T16:37:40;24.70;74.30